createdAt,value
2023-02-14T00:01:12.430Z,22.15
2023-02-14T00:03:40.274Z,25.90
2023-02-14T00:06:09.867Z,26.13
2023-02-14T00:08:37.278Z,22.63
2023-02-14T00:11:05.548Z,22.48
2023-02-14T00:13:32.916Z,22.10
2023-02-14T00:16:00.126Z,25.10
2023-02-14T00:18:47.578Z,26.15
2023-02-14T00:21:14.591Z,23.92
2023-02-14T00:23:41.503Z,26.40
2023-02-14T00:26:15.174Z,28.17
2023-02-14T00:28:43.312Z,27.52
2023-02-14T00:31:10.497Z,28.85
2023-02-14T00:33:37.990Z,28.50
2023-02-14T00:36:07.197Z,28.45
2023-02-14T00:38:34.750Z,30.75
2023-02-14T00:41:02.226Z,31.65
2023-02-14T00:43:29.312Z,28.52
2023-02-14T00:45:57.866Z,29.60
2023-02-14T00:48:25.243Z,28.50
2023-02-14T00:50:52.283Z,31.50
2023-02-14T00:53:19.370Z,35.85
2023-02-14T00:55:47.176Z,31.08
2023-02-14T00:58:15.183Z,28.70
2023-02-14T01:00:42.192Z,28.13
2023-02-14T01:03:09.246Z,28.75
2023-02-14T01:05:36.298Z,31.10
2023-02-14T01:08:04.630Z,27.70
2023-02-14T01:10:32.032Z,26.83
2023-02-14T01:12:59.284Z,25.48
2023-02-14T01:15:27.961Z,28.27
2023-02-14T01:17:55.002Z,28.08
2023-02-14T01:20:22.395Z,27.80
2023-02-14T01:22:49.434Z,25.40
2023-02-14T01:25:17.689Z,27.10
2023-02-14T01:27:44.770Z,28.38
2023-02-14T01:30:14.401Z,25.77
2023-02-14T01:32:42.478Z,27.20
2023-02-14T01:35:09.935Z,26.70
2023-02-14T01:37:37.464Z,28.67
2023-02-14T01:40:06.428Z,27.13
2023-02-14T01:42:34.747Z,25.73
2023-02-14T01:45:10.014Z,27.15
2023-02-14T01:47:43.348Z,28.45
2023-02-14T01:50:33.945Z,28.23
2023-02-14T01:53:06.350Z,27.33
2023-02-14T01:55:42.218Z,26.15
2023-02-14T01:58:16.876Z,29.40
2023-02-14T02:00:59.948Z,32.10
2023-02-14T02:03:33.522Z,30.40
2023-02-14T02:06:20.781Z,30.23
2023-02-14T02:09:08.559Z,26.50
2023-02-14T02:11:35.863Z,28.08
2023-02-14T02:14:03.994Z,28.85
2023-02-14T02:16:34.112Z,28.83
2023-02-14T02:19:24.716Z,28.92
2023-02-14T02:22:28.779Z,30.58
2023-02-14T02:25:04.464Z,32.10
2023-02-14T02:27:34.338Z,28.02
2023-02-14T02:30:19.793Z,27.85
2023-02-14T02:33:28.476Z,27.10
2023-02-14T02:36:34.805Z,28.73
2023-02-14T02:39:07.603Z,31.75
2023-02-14T02:41:53.334Z,29.85
2023-02-14T02:44:53.326Z,27.77
2023-02-14T02:47:36.703Z,26.23
2023-02-14T02:50:52.365Z,25.95
2023-02-14T02:53:33.283Z,27.15
2023-02-14T02:56:27.816Z,27.58
2023-02-14T02:59:21.069Z,23.67
2023-02-14T03:02:05.285Z,27.02
2023-02-14T03:04:54.709Z,27.15
2023-02-14T03:07:41.214Z,23.20
2023-02-14T03:10:19.785Z,24.85
2023-02-14T03:13:01.800Z,26.58
2023-02-14T03:16:05.922Z,25.02
2023-02-14T03:19:33.614Z,24.33
2023-02-14T03:22:38.318Z,23.23
2023-02-14T03:25:21.121Z,25.23
2023-02-14T03:27:57.220Z,21.52
2023-02-14T03:30:59.005Z,24.05
2023-02-14T03:33:33.602Z,23.75
2023-02-14T03:36:09.840Z,21.85
2023-02-14T03:38:48.156Z,22.92
2023-02-14T03:41:21.872Z,23.67
2023-02-14T03:46:22.112Z,25.77
2023-02-14T03:48:51.618Z,21.60
2023-02-14T03:51:20.764Z,23.85
2023-02-14T03:53:52.181Z,21.23
2023-02-14T03:56:26.181Z,20.65
2023-02-14T03:58:58.319Z,24.70
2023-02-14T04:01:42.232Z,21.75
2023-02-14T04:04:09.891Z,24.27
2023-02-14T04:06:36.868Z,25.85
2023-02-14T04:09:04.233Z,23.88
2023-02-14T04:11:35.163Z,22.38
2023-02-14T04:14:02.915Z,24.85
2023-02-14T04:16:30.199Z,21.27
2023-02-14T04:19:16.026Z,22.92
2023-02-14T04:21:43.011Z,24.85
2023-02-14T04:24:10.053Z,25.10
2023-02-14T04:26:37.081Z,23.95
2023-02-14T04:29:04.005Z,23.02
2023-02-14T04:31:31.111Z,21.05
2023-02-14T04:33:58.188Z,23.13
2023-02-14T04:36:25.219Z,24.15
2023-02-14T04:38:52.180Z,22.80
2023-02-14T04:41:19.195Z,25.52
2023-02-14T04:43:46.164Z,23.73
2023-02-14T04:46:13.309Z,23.30
2023-02-14T04:48:40.354Z,20.70
2023-02-14T04:51:07.319Z,23.33
2023-02-14T04:53:40.191Z,23.30
2023-02-14T04:56:08.105Z,24.55
2023-02-14T04:58:35.449Z,20.98
2023-02-14T05:01:02.956Z,22.92
2023-02-14T05:03:30.076Z,24.08
2023-02-14T05:05:57.041Z,23.90
2023-02-14T05:08:24.049Z,25.17
2023-02-14T05:10:51.081Z,23.45
2023-02-14T05:13:18.175Z,25.30
2023-02-14T05:15:46.320Z,24.92
2023-02-14T05:18:13.294Z,25.30
2023-02-14T05:20:40.294Z,24.70
2023-02-14T05:23:13.666Z,23.40
2023-02-14T05:25:41.649Z,25.67
2023-02-14T05:28:08.957Z,22.60
2023-02-14T05:30:37.459Z,23.20
2023-02-14T05:33:04.678Z,24.52
2023-02-14T05:35:32.430Z,25.80
2023-02-14T05:37:59.720Z,25.08
2023-02-14T05:40:26.738Z,27.45
2023-02-14T05:42:55.836Z,23.15
2023-02-14T05:45:23.656Z,25.88
2023-02-14T05:47:51.237Z,23.67
2023-02-14T05:50:19.030Z,24.50
2023-02-14T05:52:46.005Z,25.85
2023-02-14T05:55:13.182Z,22.30
2023-02-14T05:57:40.184Z,24.13
2023-02-14T06:00:08.785Z,23.60
2023-02-14T06:02:41.937Z,22.17
2023-02-14T06:05:09.091Z,25.67
2023-02-14T06:07:36.098Z,25.73
2023-02-14T06:10:04.244Z,25.48
2023-02-14T06:12:31.167Z,25.45
2023-02-14T06:14:58.140Z,24.25
2023-02-14T06:17:25.138Z,26.08
2023-02-14T06:19:53.438Z,24.60
2023-02-14T06:22:21.510Z,25.02
2023-02-14T06:24:48.464Z,25.40
2023-02-14T06:27:15.506Z,26.25
2023-02-14T06:29:42.698Z,23.15
2023-02-14T06:32:09.781Z,24.80
2023-02-14T06:34:37.070Z,26.30
2023-02-14T06:37:03.981Z,24.42
2023-02-14T06:39:30.900Z,27.95
2023-02-14T06:41:57.838Z,26.77
2023-02-14T06:44:24.859Z,26.52
2023-02-14T06:46:51.898Z,25.00
2023-02-14T06:49:18.922Z,24.23
2023-02-14T06:51:45.845Z,22.48
2023-02-14T06:54:12.805Z,23.67
2023-02-14T06:56:39.822Z,24.17
2023-02-14T06:59:06.890Z,23.63
2023-02-14T07:01:34.057Z,22.65
2023-02-14T07:04:01.120Z,23.80
2023-02-14T07:06:28.090Z,26.23
2023-02-14T07:08:55.107Z,23.58
2023-02-14T07:11:22.127Z,23.75
2023-02-14T07:13:49.589Z,23.98
2023-02-14T07:16:16.707Z,21.42
2023-02-14T07:18:43.762Z,22.08
2023-02-14T07:21:10.746Z,24.13
2023-02-14T07:23:37.761Z,27.48
2023-02-14T07:26:04.909Z,29.60
2023-02-14T07:28:33.535Z,26.08
2023-02-14T07:31:01.707Z,24.95
2023-02-14T07:33:29.475Z,26.33
2023-02-14T07:35:56.512Z,28.05
2023-02-14T07:38:24.534Z,23.83
2023-02-14T07:40:53.997Z,23.42
2023-02-14T07:43:20.948Z,23.42
2023-02-14T07:45:48.862Z,21.80
2023-02-14T07:48:15.889Z,23.92
2023-02-14T07:50:43.066Z,20.48
2023-02-14T07:53:10.386Z,21.83
2023-02-14T07:55:37.439Z,23.75
2023-02-14T07:58:04.512Z,22.02
2023-02-14T08:00:31.477Z,22.83
2023-02-14T08:03:01.334Z,22.85
2023-02-14T08:05:28.426Z,26.77
2023-02-14T08:07:55.402Z,27.13
2023-02-14T08:10:22.406Z,27.73
2023-02-14T08:13:01.391Z,26.83
2023-02-14T08:15:52.159Z,28.55
2023-02-14T08:18:21.206Z,22.70
2023-02-14T08:20:49.958Z,26.85
2023-02-14T08:23:19.180Z,25.08
2023-02-14T08:25:48.271Z,23.95
2023-02-14T08:28:15.352Z,28.05
2023-02-14T08:30:43.979Z,25.60
2023-02-14T08:33:11.288Z,23.63
2023-02-14T08:35:38.770Z,23.85
2023-02-14T08:38:06.057Z,24.80
2023-02-14T08:40:35.113Z,26.05
2023-02-14T08:43:02.184Z,28.10
2023-02-14T08:45:29.224Z,29.58
2023-02-14T08:48:10.333Z,33.42
2023-02-14T08:50:38.325Z,27.25
2023-02-14T08:53:09.905Z,28.83
2023-02-14T08:55:37.480Z,31.48
2023-02-14T08:58:04.966Z,32.90
2023-02-14T09:00:32.613Z,30.55
2023-02-14T09:02:59.713Z,35.10
2023-02-14T09:05:26.819Z,31.58
2023-02-14T09:07:56.499Z,33.53
2023-02-14T09:10:24.877Z,32.75
2023-02-14T09:12:52.377Z,33.90
2023-02-14T09:15:19.653Z,33.55
2023-02-14T09:17:47.584Z,35.60
2023-02-14T09:20:15.773Z,35.70
2023-02-14T09:22:43.549Z,36.75
2023-02-14T09:25:11.126Z,38.90
2023-02-14T09:27:38.381Z,42.38
2023-02-14T09:30:09.568Z,41.17
2023-02-14T09:32:36.826Z,42.00
2023-02-14T09:35:22.222Z,43.97
2023-02-14T09:37:49.265Z,43.03
2023-02-14T09:40:19.393Z,45.85
2023-02-14T09:43:10.192Z,45.35
2023-02-14T09:45:38.402Z,46.25
2023-02-14T09:48:26.069Z,51.50
2023-02-14T09:51:01.513Z,50.25
2023-02-14T09:53:35.406Z,48.33
2023-02-14T09:56:20.890Z,52.40
2023-02-14T09:59:22.857Z,51.50
2023-02-14T10:02:26.923Z,51.72
2023-02-14T10:05:06.495Z,55.47
2023-02-14T10:08:03.071Z,52.10
2023-02-14T10:10:42.109Z,53.92
2023-02-14T10:13:35.461Z,55.55
2023-02-14T10:16:09.923Z,56.13
2023-02-14T10:18:40.795Z,56.50
2023-02-14T10:21:09.393Z,56.20
2023-02-14T10:23:41.217Z,51.47
2023-02-14T10:26:22.549Z,52.25
2023-02-14T10:28:50.839Z,52.60
2023-02-14T10:31:41.075Z,51.97
2023-02-14T10:34:22.944Z,48.30
2023-02-14T10:37:05.338Z,47.20
2023-02-14T10:40:10.700Z,46.42
2023-02-14T10:42:55.813Z,46.88
2023-02-14T10:45:47.769Z,46.78
2023-02-14T10:48:32.937Z,47.30
2023-02-14T10:51:11.188Z,46.78
2023-02-14T10:53:47.186Z,46.65
2023-02-14T10:56:20.037Z,46.85
2023-02-14T10:58:50.690Z,45.53
2023-02-14T11:01:18.698Z,45.03
2023-02-14T11:04:04.222Z,46.67
2023-02-14T11:06:31.879Z,46.55
2023-02-14T11:08:59.290Z,46.63
2023-02-14T11:11:37.938Z,45.95
2023-02-14T11:14:28.842Z,45.83
2023-02-14T11:16:57.788Z,46.40
2023-02-14T11:19:29.373Z,47.15
2023-02-14T11:21:58.731Z,55.90
2023-02-14T11:24:28.704Z,48.53
2023-02-14T11:27:12.634Z,46.55
2023-02-14T11:29:39.595Z,55.65
2023-02-14T11:32:25.315Z,53.97
2023-02-14T11:35:02.762Z,51.75
2023-02-14T11:37:37.148Z,53.00
2023-02-14T11:40:06.007Z,51.70
2023-02-14T11:42:41.754Z,49.85
2023-02-14T11:45:32.281Z,50.00
2023-02-14T11:48:22.357Z,46.85
2023-02-14T11:51:14.683Z,54.72
2023-02-14T11:53:48.965Z,50.53
2023-02-14T11:56:18.144Z,49.90
2023-02-14T11:58:45.051Z,50.60
2023-02-14T12:01:22.104Z,51.25
2023-02-14T12:03:50.480Z,49.83
2023-02-14T12:06:26.278Z,51.50
2023-02-14T12:09:23.929Z,48.58
2023-02-14T12:12:15.626Z,49.05
2023-02-14T12:14:42.818Z,48.42
2023-02-14T12:17:15.207Z,48.33
2023-02-14T12:20:06.197Z,48.45
2023-02-14T12:23:11.898Z,46.67
2023-02-14T12:25:56.914Z,46.60
2023-02-14T12:28:31.492Z,47.38
2023-02-14T12:30:59.467Z,46.17
2023-02-14T12:33:26.734Z,48.30
2023-02-14T12:36:41.160Z,46.65
2023-02-14T12:39:35.692Z,46.28
2023-02-14T12:42:32.998Z,43.95
2023-02-14T12:45:12.503Z,42.75
2023-02-14T12:47:52.541Z,44.17
2023-02-14T12:50:23.474Z,44.92
2023-02-14T12:52:50.463Z,43.13
2023-02-14T12:55:26.381Z,44.60
2023-02-14T12:58:02.539Z,43.80
2023-02-14T13:01:04.106Z,44.15
2023-02-14T13:03:54.714Z,45.22
2023-02-14T13:06:31.767Z,42.25
2023-02-14T13:09:04.394Z,45.60
2023-02-14T13:11:36.930Z,44.75
2023-02-14T13:14:25.410Z,44.90
2023-02-14T13:17:10.566Z,45.75
2023-02-14T13:20:12.537Z,44.97
2023-02-14T13:22:41.661Z,43.33
2023-02-14T13:25:24.459Z,41.35
2023-02-14T13:27:51.699Z,41.40
2023-02-14T13:30:29.958Z,42.05
2023-02-14T13:33:00.691Z,43.90
2023-02-14T13:35:30.205Z,42.75
2023-02-14T13:38:02.223Z,41.72
2023-02-14T13:40:31.218Z,41.05
2023-02-14T13:43:00.441Z,40.20
2023-02-14T13:45:35.034Z,38.95
2023-02-14T13:48:15.334Z,39.97
2023-02-14T13:51:02.618Z,40.28
2023-02-14T13:53:49.102Z,41.72
2023-02-14T13:56:16.084Z,39.42
2023-02-14T13:58:52.241Z,38.72
2023-02-14T14:01:48.057Z,37.75
2023-02-14T14:04:30.468Z,37.40
2023-02-14T14:07:03.413Z,38.22
2023-02-14T14:09:42.577Z,38.00
2023-02-14T14:12:27.749Z,35.72
2023-02-14T14:15:07.187Z,36.03
2023-02-14T14:17:46.579Z,36.38
2023-02-14T14:20:16.599Z,36.83
2023-02-14T14:22:53.404Z,34.88
2023-02-14T14:25:33.471Z,36.67
2023-02-14T14:28:01.336Z,36.30
2023-02-14T14:30:32.961Z,36.67
2023-02-14T14:33:23.662Z,37.05
2023-02-14T14:36:03.028Z,34.65
2023-02-14T14:38:32.075Z,33.35
2023-02-14T14:41:01.014Z,33.58
2023-02-14T14:43:30.280Z,34.15
2023-02-14T14:45:59.909Z,32.75
2023-02-14T14:48:38.355Z,34.50
2023-02-14T14:51:07.833Z,34.22
2023-02-14T14:53:52.354Z,33.30
2023-02-14T14:56:25.119Z,34.50
2023-02-14T14:58:52.827Z,32.33
2023-02-14T15:01:31.857Z,32.90
2023-02-14T15:04:32.502Z,33.90
2023-02-14T15:07:19.410Z,34.25
2023-02-14T15:09:46.399Z,33.90
2023-02-14T15:12:39.436Z,33.60
2023-02-14T15:15:10.132Z,33.60
2023-02-14T15:17:38.833Z,31.98
2023-02-14T15:20:20.305Z,32.75
2023-02-14T15:22:49.851Z,35.05
2023-02-14T15:25:30.641Z,33.90
2023-02-14T15:27:57.634Z,35.50
2023-02-14T15:30:37.945Z,34.75
2023-02-14T15:33:07.950Z,33.72
2023-02-14T15:35:42.310Z,34.15
2023-02-14T15:38:11.927Z,34.22
2023-02-14T15:40:40.370Z,34.08
2023-02-14T15:43:18.138Z,35.97
2023-02-14T15:45:47.833Z,33.95
2023-02-14T15:48:30.427Z,35.08
2023-02-14T15:50:59.850Z,33.78
2023-02-14T15:53:48.778Z,34.78
2023-02-14T15:56:28.179Z,34.38
2023-02-14T15:59:04.625Z,34.67
2023-02-14T16:01:34.315Z,34.75
2023-02-14T16:04:05.410Z,33.67
2023-02-14T16:06:50.166Z,34.20
2023-02-14T16:09:26.349Z,35.55
2023-02-14T16:11:54.155Z,36.17
2023-02-14T16:14:37.578Z,34.58
2023-02-14T16:17:06.848Z,34.22
2023-02-14T16:19:45.212Z,32.70
2023-02-14T16:22:25.247Z,33.17
2023-02-14T16:24:52.288Z,35.65
2023-02-14T16:27:19.467Z,34.80
2023-02-14T16:29:46.493Z,35.00
2023-02-14T16:32:20.137Z,34.83
2023-02-14T16:34:48.329Z,35.47
2023-02-14T16:37:35.135Z,33.25
2023-02-14T16:40:02.598Z,35.42
2023-02-14T16:42:29.600Z,32.97
2023-02-14T16:44:57.898Z,33.33
2023-02-14T16:47:27.747Z,35.33
2023-02-14T16:49:54.854Z,35.53
2023-02-14T16:52:25.594Z,33.78
2023-02-14T16:54:53.560Z,34.65
2023-02-14T16:57:27.915Z,33.47
2023-02-14T16:59:56.614Z,32.15
2023-02-14T17:02:28.415Z,33.83
2023-02-14T17:04:56.070Z,33.20
2023-02-14T17:07:23.463Z,30.75
2023-02-14T17:09:55.125Z,31.88
2023-02-14T17:12:29.544Z,32.03
2023-02-14T17:15:00.835Z,30.88
2023-02-14T17:17:27.982Z,30.08
2023-02-14T17:19:54.979Z,31.30
2023-02-14T17:22:22.029Z,31.05
2023-02-14T17:24:48.978Z,32.50
2023-02-14T17:27:16.008Z,32.42
2023-02-14T17:29:43.009Z,30.55
2023-02-14T17:32:14.082Z,33.17
2023-02-14T17:34:41.814Z,30.70
2023-02-14T17:37:09.191Z,31.15
2023-02-14T17:39:36.177Z,30.80
2023-02-14T17:42:03.268Z,30.80
2023-02-14T17:44:32.541Z,25.48
2023-02-14T17:46:59.520Z,33.58
2023-02-14T17:49:26.803Z,36.65
2023-02-14T17:51:55.082Z,30.42
2023-02-14T17:54:22.793Z,30.83
2023-02-14T17:56:50.121Z,25.92
2023-02-14T17:59:17.132Z,32.95
2023-02-14T18:01:44.230Z,26.33
2023-02-14T18:04:11.343Z,41.00
2023-02-14T18:06:38.270Z,31.75
2023-02-14T18:09:06.432Z,29.40
2023-02-14T18:11:33.477Z,36.55
2023-02-14T18:14:01.762Z,28.25
2023-02-14T18:16:29.304Z,29.20
2023-02-14T18:18:56.430Z,27.70
2023-02-14T18:21:24.626Z,27.00
2023-02-14T18:23:52.018Z,34.92
2023-02-14T18:26:19.337Z,28.25
2023-02-14T18:28:46.599Z,33.75
2023-02-14T18:31:16.644Z,27.75
2023-02-14T18:33:44.652Z,28.25
2023-02-14T18:36:17.462Z,39.08
2023-02-14T18:38:48.987Z,32.30
2023-02-14T18:41:18.374Z,37.83
2023-02-14T18:43:45.602Z,30.42
2023-02-14T18:46:15.378Z,30.80
2023-02-14T18:48:43.076Z,38.47
2023-02-14T18:51:12.967Z,30.80
2023-02-14T18:53:40.764Z,34.28
2023-02-14T18:56:10.684Z,33.67
2023-02-14T18:58:38.463Z,33.28
2023-02-14T19:01:16.899Z,35.40
2023-02-14T19:03:45.096Z,40.92
2023-02-14T19:06:13.027Z,28.40
2023-02-14T19:08:40.785Z,28.48
2023-02-14T19:11:13.962Z,28.02
2023-02-14T19:13:45.802Z,30.97
2023-02-14T19:16:15.839Z,30.20
2023-02-14T19:18:43.562Z,30.60
2023-02-14T19:21:14.757Z,30.00
2023-02-14T19:23:42.025Z,34.35
2023-02-14T19:26:14.225Z,27.33
2023-02-14T19:28:42.174Z,39.95
2023-02-14T19:31:10.308Z,36.17
2023-02-14T19:33:42.722Z,31.63
2023-02-14T19:36:14.834Z,28.25
2023-02-14T19:38:46.866Z,31.27
2023-02-14T19:41:21.163Z,27.48
2023-02-14T19:43:49.140Z,29.83
2023-02-14T19:46:18.135Z,28.02
2023-02-14T19:48:46.058Z,35.17
2023-02-14T19:51:16.456Z,55.08
2023-02-14T19:53:44.123Z,61.38
2023-02-14T19:56:11.805Z,47.55
2023-02-14T19:58:39.152Z,39.05
2023-02-14T20:01:06.375Z,38.08
2023-02-14T20:03:35.305Z,33.50
2023-02-14T20:06:02.931Z,34.53
2023-02-14T20:08:29.862Z,33.17
2023-02-14T20:10:56.981Z,27.63
2023-02-14T20:13:23.990Z,27.70
2023-02-14T20:15:51.558Z,27.60
2023-02-14T20:18:18.478Z,26.95
2023-02-14T20:21:04.675Z,27.33
2023-02-14T20:23:33.161Z,27.13
2023-02-14T20:26:00.238Z,25.30
2023-02-14T20:28:27.251Z,28.88
2023-02-14T20:30:54.471Z,28.85
2023-02-14T20:33:21.545Z,28.30
2023-02-14T20:35:48.510Z,28.35
2023-02-14T20:38:16.622Z,29.42
2023-02-14T20:40:44.582Z,29.10
2023-02-14T20:43:11.685Z,27.65
2023-02-14T20:45:39.061Z,26.90
2023-02-14T20:48:08.111Z,26.77
2023-02-14T20:50:35.596Z,27.75
2023-02-14T20:53:02.639Z,27.25
2023-02-14T20:55:31.227Z,28.35
2023-02-14T20:58:02.467Z,27.70
2023-02-14T21:00:30.144Z,26.20
2023-02-14T21:02:58.824Z,26.55
2023-02-14T21:05:26.167Z,29.58
2023-02-14T21:07:53.119Z,29.92
2023-02-14T21:10:20.224Z,28.13
2023-02-14T21:12:48.467Z,28.80
2023-02-14T21:15:18.087Z,27.05
2023-02-14T21:17:45.165Z,25.73
2023-02-14T21:20:12.825Z,27.83
2023-02-14T21:22:39.868Z,27.60
2023-02-14T21:25:07.790Z,25.98
2023-02-14T21:27:34.801Z,27.48
2023-02-14T21:30:03.163Z,29.10
2023-02-14T21:32:30.301Z,27.70
2023-02-14T21:34:57.372Z,23.65
2023-02-14T21:37:24.325Z,23.67
2023-02-14T21:39:51.367Z,26.73
2023-02-14T21:42:18.802Z,24.42
2023-02-14T21:45:04.216Z,26.00
2023-02-14T21:47:31.406Z,25.40
2023-02-14T21:50:17.376Z,24.73
2023-02-14T21:52:44.602Z,24.60
2023-02-14T21:55:11.587Z,23.20
2023-02-14T21:57:38.563Z,26.38
2023-02-14T22:00:06.679Z,24.65
2023-02-14T22:02:39.905Z,24.02
2023-02-14T22:05:08.064Z,20.80
2023-02-14T22:07:35.326Z,25.85
2023-02-14T22:10:03.505Z,30.52
2023-02-14T22:12:30.630Z,28.25
2023-02-14T22:15:00.328Z,30.42
2023-02-14T22:17:27.982Z,35.03
2023-02-14T22:19:55.157Z,35.20
2023-02-14T22:22:22.185Z,31.73
2023-02-14T22:24:49.713Z,30.15
2023-02-14T22:27:16.756Z,28.70
2023-02-14T22:29:43.797Z,27.63
2023-02-14T22:32:10.841Z,28.52
2023-02-14T22:34:37.930Z,26.50
2023-02-14T22:37:04.861Z,26.20
2023-02-14T22:39:31.832Z,25.88
2023-02-14T22:41:58.894Z,25.20
2023-02-14T22:44:26.012Z,26.15
2023-02-14T22:46:53.039Z,27.88
2023-02-14T22:49:20.170Z,27.45
2023-02-14T22:51:47.109Z,28.40
2023-02-14T22:54:15.583Z,28.23
2023-02-14T22:56:47.816Z,23.38
2023-02-14T22:59:23.644Z,26.25
2023-02-14T23:01:52.860Z,26.60
2023-02-14T23:04:22.283Z,25.05
2023-02-14T23:06:50.466Z,26.65
2023-02-14T23:09:17.516Z,23.83
2023-02-14T23:11:46.045Z,26.10
2023-02-14T23:14:33.123Z,25.55
2023-02-14T23:17:18.761Z,26.67
2023-02-14T23:20:04.668Z,24.83
2023-02-14T23:22:34.660Z,25.73
2023-02-14T23:25:05.338Z,25.80
2023-02-14T23:27:35.048Z,26.27
2023-02-14T23:30:03.211Z,24.77
2023-02-14T23:32:30.310Z,23.60
2023-02-14T23:34:58.388Z,25.85
2023-02-14T23:37:25.524Z,22.70
2023-02-14T23:39:52.609Z,24.42
2023-02-14T23:42:19.738Z,26.05
2023-02-14T23:44:47.516Z,24.45
2023-02-14T23:47:15.266Z,23.83
2023-02-14T23:49:43.020Z,24.63
2023-02-14T23:52:12.151Z,26.00
2023-02-14T23:54:39.516Z,23.75
2023-02-14T23:57:07.569Z,24.08
2023-02-14T23:59:35.347Z,24.42
